sensor_id;sensor_type;location;lat;lon;timestamp;temperature;humidity
49901;DHT22;35789;48.414;12.768;2023-07-13T00:00:00;18.6;99.9
49901;DHT22;35789;48.414;12.768;2023-07-13T00:05:00;18.6;99.9
49901;DHT22;35789;48.414;12.768;2023-07-13T00:10:00;18.5;99.9
49901;DHT22;35789;48.414;12.768;2023-07-13T00:15:01;18.5;99.9
49901;DHT22;35789;48.414;12.768;2023-07-13T00:20:00;18.5;99.9
49901;DHT22;35789;48.414;12.768;2023-07-13T00:25:00;18.4;99.9
49901;DHT22;35789;48.414;12.768;2023-07-13T00:30:00;18.3;99.9
49901;DHT22;35789;48.414;12.768;2023-07-13T00:35:00;18.3;99.9
49901;DHT22;35789;48.414;12.768;2023-07-13T00:40:00;18.4;99.9
49901;DHT22;35789;48.414;12.768;2023-07-13T00:45:00;18.2;99.9
49901;DHT22;35789;48.414;12.768;2023-07-13T00:50:00;18.2;99.9
49901;DHT22;35789;48.414;12.768;2023-07-13T00:55:00;18.2;99.9
49901;DHT22;35789;48.414;12.768;2023-07-13T01:00:00;18.3;99.9
49901;DHT22;35789;48.414;12.768;2023-07-13T01:05:00;18.2;99.9
49901;DHT22;35789;48.414;12.768;2023-07-13T01:10:00;18.2;99.9
49901;DHT22;35789;48.414;12.768;2023-07-13T01:15:00;18.1;99.9
49901;DHT22;35789;48.414;12.768;2023-07-13T01:20:00;18.1;99.9
49901;DHT22;35789;48.414;12.768;2023-07-13T01:25:00;18.2;99.9
49901;DHT22;35789;48.414;12.768;2023-07-13T01:30:00;18.1;99.9
49901;DHT22;35789;48.414;12.768;2023-07-13T01:35:00;18.2;99.9
49901;DHT22;35789;48.414;12.768;2023-07-13T01:40:00;18.2;99.9
49901;DHT22;35789;48.414;12.768;2023-07-13T01:45:00;18.2;99.9
49901;DHT22;35789;48.414;12.768;2023-07-13T01:50:00;18.2;99.9
49901;DHT22;35789;48.414;12.768;2023-07-13T01:55:00;18.2;99.9
49901;DHT22;35789;48.414;12.768;2023-07-13T02:00:02;18.2;99.9
49901;DHT22;35789;48.414;12.768;2023-07-13T02:05:00;18.1;99.9
49901;DHT22;35789;48.414;12.768;2023-07-13T02:10:00;18.2;99.9
49901;DHT22;35789;48.414;12.768;2023-07-13T02:15:00;18.2;99.9
49901;DHT22;35789;48.414;12.768;2023-07-13T02:20:00;18.2;99.9
49901;DHT22;35789;48.414;12.768;2023-07-13T02:25:00;18.2;99.9
49901;DHT22;35789;48.414;12.768;2023-07-13T02:30:00;18.2;99.9
49901;DHT22;35789;48.414;12.768;2023-07-13T02:35:00;18.2;99.9
49901;DHT22;35789;48.414;12.768;2023-07-13T02:40:00;18.2;99.9
49901;DHT22;35789;48.414;12.768;2023-07-13T02:45:00;18.2;99.9
49901;DHT22;35789;48.414;12.768;2023-07-13T02:50:00;18.2;99.9
49901;DHT22;35789;48.414;12.768;2023-07-13T02:55:00;18.2;99.9
49901;DHT22;35789;48.414;12.768;2023-07-13T03:00:00;18.2;99.9
49901;DHT22;35789;48.414;12.768;2023-07-13T03:05:00;18.2;99.9
49901;DHT22;35789;48.414;12.768;2023-07-13T03:10:00;18.2;99.9
49901;DHT22;35789;48.414;12.768;2023-07-13T03:15:00;18.2;99.9
49901;DHT22;35789;48.414;12.768;2023-07-13T03:20:00;18.1;99.9
49901;DHT22;35789;48.414;12.768;2023-07-13T03:25:00;18.2;99.9
49901;DHT22;35789;48.414;12.768;2023-07-13T03:30:00;18.1;99.9
49901;DHT22;35789;48.414;12.768;2023-07-13T03:35:00;18.2;99.9
49901;DHT22;35789;48.414;12.768;2023-07-13T03:40:00;18.1;99.9
49901;DHT22;35789;48.414;12.768;2023-07-13T03:45:00;18.1;99.9
49901;DHT22;35789;48.414;12.768;2023-07-13T03:50:00;18.1;99.9
49901;DHT22;35789;48.414;12.768;2023-07-13T03:55:00;18.1;99.9
49901;DHT22;35789;48.414;12.768;2023-07-13T04:00:00;18.1;99.9
49901;DHT22;35789;48.414;12.768;2023-07-13T04:05:00;18.1;99.9
49901;DHT22;35789;48.414;12.768;2023-07-13T04:10:00;18.1;99.9
49901;DHT22;35789;48.414;12.768;2023-07-13T04:15:00;18.1;99.9
49901;DHT22;35789;48.414;12.768;2023-07-13T04:20:00;18.1;99.9
49901;DHT22;35789;48.414;12.768;2023-07-13T04:25:00;18.1;99.9
49901;DHT22;35789;48.414;12.768;2023-07-13T04:30:00;18.2;99.9
49901;DHT22;35789;48.414;12.768;2023-07-13T04:35:00;18.1;99.9
49901;DHT22;35789;48.414;12.768;2023-07-13T04:40:00;18.1;99.9
49901;DHT22;35789;48.414;12.768;2023-07-13T04:45:00;18.1;99.9
49901;DHT22;35789;48.414;12.768;2023-07-13T04:50:00;18.2;99.9
49901;DHT22;35789;48.414;12.768;2023-07-13T04:55:00;18.2;99.9
49901;DHT22;35789;48.414;12.768;2023-07-13T05:00:00;18.2;99.9
49901;DHT22;35789;48.414;12.768;2023-07-13T05:05:00;18.3;99.9
49901;DHT22;35789;48.414;12.768;2023-07-13T05:10:00;18.3;99.9
49901;DHT22;35789;48.414;12.768;2023-07-13T05:15:00;18.3;99.9
49901;DHT22;35789;48.414;12.768;2023-07-13T05:20:00;18.3;99.9
49901;DHT22;35789;48.414;12.768;2023-07-13T05:25:00;18.3;99.9
49901;DHT22;35789;48.414;12.768;2023-07-13T05:30:00;18.3;99.9
49901;DHT22;35789;48.414;12.768;2023-07-13T05:35:00;18.3;99.9
49901;DHT22;35789;48.414;12.768;2023-07-13T05:40:00;18.3;99.9
49901;DHT22;35789;48.414;12.768;2023-07-13T05:45:00;18.4;99.9
49901;DHT22;35789;48.414;12.768;2023-07-13T05:50:00;18.4;99.9
49901;DHT22;35789;48.414;12.768;2023-07-13T05:55:00;18.5;99.9
49901;DHT22;35789;48.414;12.768;2023-07-13T06:00:00;18.6;99.9
49901;DHT22;35789;48.414;12.768;2023-07-13T06:05:00;18.6;99.9
49901;DHT22;35789;48.414;12.768;2023-07-13T06:10:00;18.6;99.9
49901;DHT22;35789;48.414;12.768;2023-07-13T06:15:00;18.8;99.9
49901;DHT22;35789;48.414;12.768;2023-07-13T06:20:00;18.8;99.9
49901;DHT22;35789;48.414;12.768;2023-07-13T06:25:00;18.9;99.9
49901;DHT22;35789;48.414;12.768;2023-07-13T06:30:00;19.0;99.9
49901;DHT22;35789;48.414;12.768;2023-07-13T06:35:00;19.1;99.9
49901;DHT22;35789;48.414;12.768;2023-07-13T06:40:00;19.3;99.9
49901;DHT22;35789;48.414;12.768;2023-07-13T06:45:00;19.3;99.9
49901;DHT22;35789;48.414;12.768;2023-07-13T06:50:00;19.3;99.9
49901;DHT22;35789;48.414;12.768;2023-07-13T06:55:00;19.3;99.9
49901;DHT22;35789;48.414;12.768;2023-07-13T07:00:00;19.1;99.9
49901;DHT22;35789;48.414;12.768;2023-07-13T07:05:00;19.1;99.9
49901;DHT22;35789;48.414;12.768;2023-07-13T07:10:00;19.2;99.9
49901;DHT22;35789;48.414;12.768;2023-07-13T07:15:00;19.2;99.9
49901;DHT22;35789;48.414;12.768;2023-07-13T07:20:00;19.2;99.9
49901;DHT22;35789;48.414;12.768;2023-07-13T07:25:00;19.3;99.9
49901;DHT22;35789;48.414;12.768;2023-07-13T07:30:00;19.4;99.9
49901;DHT22;35789;48.414;12.768;2023-07-13T07:35:00;19.4;99.9
49901;DHT22;35789;48.414;12.768;2023-07-13T07:40:00;19.3;99.9
49901;DHT22;35789;48.414;12.768;2023-07-13T07:45:00;19.5;99.9
49901;DHT22;35789;48.414;12.768;2023-07-13T07:50:00;19.6;99.9
49901;DHT22;35789;48.414;12.768;2023-07-13T07:55:00;19.8;99.9
49901;DHT22;35789;48.414;12.768;2023-07-13T08:00:00;20.0;99.9
49901;DHT22;35789;48.414;12.768;2023-07-13T08:05:00;20.2;99.9
49901;DHT22;35789;48.414;12.768;2023-07-13T08:10:00;20.4;99.9
49901;DHT22;35789;48.414;12.768;2023-07-13T08:15:00;20.3;99.9
49901;DHT22;35789;48.414;12.768;2023-07-13T08:20:00;20.1;99.9
49901;DHT22;35789;48.414;12.768;2023-07-13T08:25:00;20.3;99.9
49901;DHT22;35789;48.414;12.768;2023-07-13T08:30:00;20.2;99.9
49901;DHT22;35789;48.414;12.768;2023-07-13T08:35:00;20.0;99.9
49901;DHT22;35789;48.414;12.768;2023-07-13T08:40:00;19.9;99.9
49901;DHT22;35789;48.414;12.768;2023-07-13T08:45:04;19.9;99.9
49901;DHT22;35789;48.414;12.768;2023-07-13T08:50:00;20.1;99.9
49901;DHT22;35789;48.414;12.768;2023-07-13T08:55:02;20.1;99.9
49901;DHT22;35789;48.414;12.768;2023-07-13T09:00:00;20.1;99.9
49901;DHT22;35789;48.414;12.768;2023-07-13T09:05:01;20.4;99.9
49901;DHT22;35789;48.414;12.768;2023-07-13T09:10:03;20.5;99.9
49901;DHT22;35789;48.414;12.768;2023-07-13T09:15:00;20.7;99.9
49901;DHT22;35789;48.414;12.768;2023-07-13T09:20:00;20.6;99.9
49901;DHT22;35789;48.414;12.768;2023-07-13T09:25:02;20.6;99.9
49901;DHT22;35789;48.414;12.768;2023-07-13T09:30:02;20.7;99.9
49901;DHT22;35789;48.414;12.768;2023-07-13T09:35:00;20.7;99.9
49901;DHT22;35789;48.414;12.768;2023-07-13T09:40:00;20.6;99.9
49901;DHT22;35789;48.414;12.768;2023-07-13T09:45:00;20.4;99.9
49901;DHT22;35789;48.414;12.768;2023-07-13T09:50:01;20.3;99.9
49901;DHT22;35789;48.414;12.768;2023-07-13T09:55:00;20.4;99.9
49901;DHT22;35789;48.414;12.768;2023-07-13T10:00:00;20.6;99.9
49901;DHT22;35789;48.414;12.768;2023-07-13T10:05:00;20.6;99.9
49901;DHT22;35789;48.414;12.768;2023-07-13T10:10:01;20.6;99.8
49901;DHT22;35789;48.414;12.768;2023-07-13T10:15:00;20.8;98.7
49901;DHT22;35789;48.414;12.768;2023-07-13T10:20:01;20.7;98.3
49901;DHT22;35789;48.414;12.768;2023-07-13T10:25:00;20.6;96.8
49901;DHT22;35789;48.414;12.768;2023-07-13T10:30:02;20.6;99.0
49901;DHT22;35789;48.414;12.768;2023-07-13T10:35:00;20.7;98.6
49901;DHT22;35789;48.414;12.768;2023-07-13T10:40:00;20.7;97.4
49901;DHT22;35789;48.414;12.768;2023-07-13T10:45:00;20.6;97.3
49901;DHT22;35789;48.414;12.768;2023-07-13T10:50:00;20.7;98.4
49901;DHT22;35789;48.414;12.768;2023-07-13T10:55:00;20.6;97.8
49901;DHT22;35789;48.414;12.768;2023-07-13T11:05:01;20.3;98.2
49901;DHT22;35789;48.414;12.768;2023-07-13T11:10:03;20.4;97.9
49901;DHT22;35789;48.414;12.768;2023-07-13T11:15:01;20.5;97.5
49901;DHT22;35789;48.414;12.768;2023-07-13T11:20:09;20.8;97.5
49901;DHT22;35789;48.414;12.768;2023-07-13T11:25:00;21.0;96.9
49901;DHT22;35789;48.414;12.768;2023-07-13T11:35:00;22.7;95.2
49901;DHT22;35789;48.414;12.768;2023-07-13T11:40:00;23.0;94.2
49901;DHT22;35789;48.414;12.768;2023-07-13T11:45:00;24.0;92.7
49901;DHT22;35789;48.414;12.768;2023-07-13T11:50:00;24.3;91.0
49901;DHT22;35789;48.414;12.768;2023-07-13T11:55:00;23.7;91.3
49901;DHT22;35789;48.414;12.768;2023-07-13T12:00:00;23.2;88.2
49901;DHT22;35789;48.414;12.768;2023-07-13T12:05:00;22.8;88.3
49901;DHT22;35789;48.414;12.768;2023-07-13T12:10:00;22.6;89.1
49901;DHT22;35789;48.414;12.768;2023-07-13T12:15:00;22.4;91.4
49901;DHT22;35789;48.414;12.768;2023-07-13T12:20:00;22.8;91.1
49901;DHT22;35789;48.414;12.768;2023-07-13T12:25:00;23.5;86.1
49901;DHT22;35789;48.414;12.768;2023-07-13T12:30:15;23.6;87.8
49901;DHT22;35789;48.414;12.768;2023-07-13T12:35:03;24.2;86.0
49901;DHT22;35789;48.414;12.768;2023-07-13T12:40:00;24.2;88.7
49901;DHT22;35789;48.414;12.768;2023-07-13T12:45:00;24.3;87.3
49901;DHT22;35789;48.414;12.768;2023-07-13T12:50:02;25.1;82.8
49901;DHT22;35789;48.414;12.768;2023-07-13T12:55:03;25.0;80.0
49901;DHT22;35789;48.414;12.768;2023-07-13T13:00:00;25.0;80.9
49901;DHT22;35789;48.414;12.768;2023-07-13T13:05:00;24.8;83.9
49901;DHT22;35789;48.414;12.768;2023-07-13T13:10:00;24.9;81.5
49901;DHT22;35789;48.414;12.768;2023-07-13T13:15:00;24.6;85.0
49901;DHT22;35789;48.414;12.768;2023-07-13T13:20:00;24.6;85.1
49901;DHT22;35789;48.414;12.768;2023-07-13T13:25:00;24.3;85.5
49901;DHT22;35789;48.414;12.768;2023-07-13T13:30:00;24.1;86.6
49901;DHT22;35789;48.414;12.768;2023-07-13T13:35:00;24.3;86.1
49901;DHT22;35789;48.414;12.768;2023-07-13T13:40:00;24.2;86.2
49901;DHT22;35789;48.414;12.768;2023-07-13T13:45:00;23.9;86.9
49901;DHT22;35789;48.414;12.768;2023-07-13T13:50:00;24.1;85.6
49901;DHT22;35789;48.414;12.768;2023-07-13T13:55:00;24.4;83.3
49901;DHT22;35789;48.414;12.768;2023-07-13T14:00:00;24.5;85.5
49901;DHT22;35789;48.414;12.768;2023-07-13T14:05:01;24.7;83.8
49901;DHT22;35789;48.414;12.768;2023-07-13T14:10:00;24.5;85.1
49901;DHT22;35789;48.414;12.768;2023-07-13T14:15:00;24.2;86.0
49901;DHT22;35789;48.414;12.768;2023-07-13T14:20:00;24.4;83.3
49901;DHT22;35789;48.414;12.768;2023-07-13T14:25:00;24.5;81.9
49901;DHT22;35789;48.414;12.768;2023-07-13T14:30:00;24.2;83.5
49901;DHT22;35789;48.414;12.768;2023-07-13T14:35:00;24.1;82.1
49901;DHT22;35789;48.414;12.768;2023-07-13T14:40:00;24.3;81.1
49901;DHT22;35789;48.414;12.768;2023-07-13T14:45:00;24.3;82.2
49901;DHT22;35789;48.414;12.768;2023-07-13T14:50:00;24.3;81.0
49901;DHT22;35789;48.414;12.768;2023-07-13T14:55:00;24.1;81.0
49901;DHT22;35789;48.414;12.768;2023-07-13T15:00:00;23.9;79.9
49901;DHT22;35789;48.414;12.768;2023-07-13T15:05:00;23.9;82.0
49901;DHT22;35789;48.414;12.768;2023-07-13T15:10:00;23.9;81.9
49901;DHT22;35789;48.414;12.768;2023-07-13T15:15:00;24.0;77.3
49901;DHT22;35789;48.414;12.768;2023-07-13T15:20:00;24.0;80.0
49901;DHT22;35789;48.414;12.768;2023-07-13T15:25:00;24.0;81.1
49901;DHT22;35789;48.414;12.768;2023-07-13T15:30:00;24.0;80.4
49901;DHT22;35789;48.414;12.768;2023-07-13T15:35:00;24.0;80.8
49901;DHT22;35789;48.414;12.768;2023-07-13T15:40:00;23.8;80.4
49901;DHT22;35789;48.414;12.768;2023-07-13T15:45:00;23.6;80.8
49901;DHT22;35789;48.414;12.768;2023-07-13T15:50:00;23.5;82.8
49901;DHT22;35789;48.414;12.768;2023-07-13T15:55:00;23.6;81.8
49901;DHT22;35789;48.414;12.768;2023-07-13T16:00:00;23.6;83.2
49901;DHT22;35789;48.414;12.768;2023-07-13T16:05:00;23.5;82.7
49901;DHT22;35789;48.414;12.768;2023-07-13T16:10:00;23.4;83.8
49901;DHT22;35789;48.414;12.768;2023-07-13T16:15:00;23.3;82.7
49901;DHT22;35789;48.414;12.768;2023-07-13T16:20:00;23.5;80.3
49901;DHT22;35789;48.414;12.768;2023-07-13T16:25:00;23.8;81.4
49901;DHT22;35789;48.414;12.768;2023-07-13T16:30:00;23.6;83.5
49901;DHT22;35789;48.414;12.768;2023-07-13T16:35:00;23.3;80.9
49901;DHT22;35789;48.414;12.768;2023-07-13T16:40:00;23.1;83.0
49901;DHT22;35789;48.414;12.768;2023-07-13T16:45:00;23.2;81.1
49901;DHT22;35789;48.414;12.768;2023-07-13T16:50:00;23.1;84.1
49901;DHT22;35789;48.414;12.768;2023-07-13T16:55:00;23.2;83.9
49901;DHT22;35789;48.414;12.768;2023-07-13T17:00:00;23.4;82.6
49901;DHT22;35789;48.414;12.768;2023-07-13T17:05:00;23.4;82.8
49901;DHT22;35789;48.414;12.768;2023-07-13T17:10:00;23.3;83.4
49901;DHT22;35789;48.414;12.768;2023-07-13T17:15:00;23.3;82.9
49901;DHT22;35789;48.414;12.768;2023-07-13T17:20:00;23.2;83.5
49901;DHT22;35789;48.414;12.768;2023-07-13T17:25:00;23.1;84.2
49901;DHT22;35789;48.414;12.768;2023-07-13T17:30:00;23.0;82.9
49901;DHT22;35789;48.414;12.768;2023-07-13T17:35:00;22.8;83.6
49901;DHT22;35789;48.414;12.768;2023-07-13T17:40:00;22.8;81.2
49901;DHT22;35789;48.414;12.768;2023-07-13T17:45:00;22.7;83.8
49901;DHT22;35789;48.414;12.768;2023-07-13T17:50:00;22.6;85.3
49901;DHT22;35789;48.414;12.768;2023-07-13T17:55:00;22.4;85.9
49901;DHT22;35789;48.414;12.768;2023-07-13T18:00:00;22.3;86.0
49901;DHT22;35789;48.414;12.768;2023-07-13T18:05:00;22.2;86.3
49901;DHT22;35789;48.414;12.768;2023-07-13T18:10:00;22.0;87.3
49901;DHT22;35789;48.414;12.768;2023-07-13T18:15:00;21.9;85.0
49901;DHT22;35789;48.414;12.768;2023-07-13T18:20:00;21.7;88.9
49901;DHT22;35789;48.414;12.768;2023-07-13T18:25:00;21.6;88.4
49901;DHT22;35789;48.414;12.768;2023-07-13T18:30:00;21.3;88.7
49901;DHT22;35789;48.414;12.768;2023-07-13T18:35:00;21.2;90.6
49901;DHT22;35789;48.414;12.768;2023-07-13T18:40:00;21.1;90.3
49901;DHT22;35789;48.414;12.768;2023-07-13T18:45:00;21.0;91.2
49901;DHT22;35789;48.414;12.768;2023-07-13T18:50:01;20.9;90.5
49901;DHT22;35789;48.414;12.768;2023-07-13T18:55:00;20.8;91.9
49901;DHT22;35789;48.414;12.768;2023-07-13T19:00:00;20.6;91.6
49901;DHT22;35789;48.414;12.768;2023-07-13T19:05:00;20.5;91.8
49901;DHT22;35789;48.414;12.768;2023-07-13T19:10:00;20.3;92.1
49901;DHT22;35789;48.414;12.768;2023-07-13T19:15:00;20.1;92.4
49901;DHT22;35789;48.414;12.768;2023-07-13T19:20:00;19.9;92.0
49901;DHT22;35789;48.414;12.768;2023-07-13T19:25:00;19.7;93.1
49901;DHT22;35789;48.414;12.768;2023-07-13T19:30:00;19.6;93.5
49901;DHT22;35789;48.414;12.768;2023-07-13T19:35:00;19.5;94.3
49901;DHT22;35789;48.414;12.768;2023-07-13T19:40:00;19.4;94.3
49901;DHT22;35789;48.414;12.768;2023-07-13T19:45:00;19.3;95.0
49901;DHT22;35789;48.414;12.768;2023-07-13T19:50:00;19.2;95.2
49901;DHT22;35789;48.414;12.768;2023-07-13T19:55:00;19.0;95.2
49901;DHT22;35789;48.414;12.768;2023-07-13T20:00:00;18.9;96.1
49901;DHT22;35789;48.414;12.768;2023-07-13T20:05:00;18.6;96.3
49901;DHT22;35789;48.414;12.768;2023-07-13T20:10:00;18.5;96.5
49901;DHT22;35789;48.414;12.768;2023-07-13T20:15:00;18.3;96.7
49901;DHT22;35789;48.414;12.768;2023-07-13T20:20:00;18.2;96.9
49901;DHT22;35789;48.414;12.768;2023-07-13T20:25:00;18.1;97.5
49901;DHT22;35789;48.414;12.768;2023-07-13T20:30:00;18.0;97.4
49901;DHT22;35789;48.414;12.768;2023-07-13T20:35:00;17.9;97.6
49901;DHT22;35789;48.414;12.768;2023-07-13T20:40:00;17.7;97.9
49901;DHT22;35789;48.414;12.768;2023-07-13T20:45:00;17.6;98.1
49901;DHT22;35789;48.414;12.768;2023-07-13T20:50:00;17.5;98.0
49901;DHT22;35789;48.414;12.768;2023-07-13T20:55:00;17.5;98.6
49901;DHT22;35789;48.414;12.768;2023-07-13T21:00:00;17.4;98.6
49901;DHT22;35789;48.414;12.768;2023-07-13T21:05:08;17.4;99.0
49901;DHT22;35789;48.414;12.768;2023-07-13T21:10:00;17.3;99.0
49901;DHT22;35789;48.414;12.768;2023-07-13T21:15:00;17.3;98.8
49901;DHT22;35789;48.414;12.768;2023-07-13T21:20:00;17.2;99.3
49901;DHT22;35789;48.414;12.768;2023-07-13T21:25:00;17.1;99.3
49901;DHT22;35789;48.414;12.768;2023-07-13T21:30:00;17.0;99.4
49901;DHT22;35789;48.414;12.768;2023-07-13T21:35:00;16.9;99.6
49901;DHT22;35789;48.414;12.768;2023-07-13T21:40:00;17.0;99.9
49901;DHT22;35789;48.414;12.768;2023-07-13T21:45:00;17.0;99.9
49901;DHT22;35789;48.414;12.768;2023-07-13T21:50:00;17.0;99.9
49901;DHT22;35789;48.414;12.768;2023-07-13T21:55:00;16.9;99.9
49901;DHT22;35789;48.414;12.768;2023-07-13T22:00:00;16.9;99.9
49901;DHT22;35789;48.414;12.768;2023-07-13T22:05:00;16.9;99.9
49901;DHT22;35789;48.414;12.768;2023-07-13T22:10:00;16.8;99.9
49901;DHT22;35789;48.414;12.768;2023-07-13T22:15:00;16.7;99.9
49901;DHT22;35789;48.414;12.768;2023-07-13T22:20:00;16.6;99.9
49901;DHT22;35789;48.414;12.768;2023-07-13T22:25:00;16.8;99.9
49901;DHT22;35789;48.414;12.768;2023-07-13T22:30:00;16.9;99.9
49901;DHT22;35789;48.414;12.768;2023-07-13T22:35:00;16.9;99.9
49901;DHT22;35789;48.414;12.768;2023-07-13T22:40:00;16.9;99.9
49901;DHT22;35789;48.414;12.768;2023-07-13T22:45:00;16.9;99.9
49901;DHT22;35789;48.414;12.768;2023-07-13T22:50:00;16.9;99.9
49901;DHT22;35789;48.414;12.768;2023-07-13T22:55:00;16.9;99.9
49901;DHT22;35789;48.414;12.768;2023-07-13T23:00:00;16.8;99.9
49901;DHT22;35789;48.414;12.768;2023-07-13T23:05:00;16.7;99.9
49901;DHT22;35789;48.414;12.768;2023-07-13T23:10:00;16.6;99.9
49901;DHT22;35789;48.414;12.768;2023-07-13T23:15:00;16.6;99.9
49901;DHT22;35789;48.414;12.768;2023-07-13T23:20:00;16.5;99.9
49901;DHT22;35789;48.414;12.768;2023-07-13T23:25:00;16.5;99.9
49901;DHT22;35789;48.414;12.768;2023-07-13T23:30:00;16.4;99.9
49901;DHT22;35789;48.414;12.768;2023-07-13T23:35:00;16.3;99.9
49901;DHT22;35789;48.414;12.768;2023-07-13T23:40:00;16.2;99.9
49901;DHT22;35789;48.414;12.768;2023-07-13T23:45:00;16.2;99.9
49901;DHT22;35789;48.414;12.768;2023-07-13T23:50:00;16.1;99.9
49901;DHT22;35789;48.414;12.768;2023-07-13T23:55:00;16.0;99.9
